Time;durP1;ratioP1;P1;durP2;ratioP2;P2;SDS_P1;SDS_P2;PMS_P1;PMS_P2;Temp;Humidity;BMP_temperature;BMP_pressure;BME280_temperature;BME280_humidity;BME280_pressure;Samples;Min_cycle;Max_cycle;Signal;HPM_P1;HPM_P2
2022/06/27 00:00:55;;;;;;;6.40;5.80;;;;;;;18.72;59.02;100386.59;130172;1270;109564;-76
2022/06/27 00:04:01;;;;;;;6.90;5.90;;;;;;;18.66;59.22;100387.91;130172;1270;110792;-76
2022/06/27 00:07:07;;;;;;;7.90;6.20;;;;;;;18.63;59.44;100390.52;130036;1270;108774;-75
2022/06/27 00:10:13;;;;;;;6.60;6.00;;;;;;;18.63;59.46;100386.56;129956;1270;108662;-77
2022/06/27 00:13:18;;;;;;;6.80;6.20;;;;;;;18.57;59.52;100391.32;130029;1270;108663;-74
2022/06/27 00:16:24;;;;;;;6.90;6.20;;;;;;;18.53;59.70;100389.47;130172;1270;108687;-76
2022/06/27 00:19:31;;;;;;;6.30;5.70;;;;;;;18.49;59.75;100387.39;130174;1270;108883;-77
2022/06/27 00:22:36;;;;;;;6.40;5.70;;;;;;;18.44;59.83;100388.61;130093;1270;108823;-76
2022/06/27 00:25:42;;;;;;;5.90;5.40;;;;;;;18.43;60.04;100388.61;130065;1270;108652;-75
2022/06/27 00:28:48;;;;;;;6.60;5.60;;;;;;;18.44;60.05;100386.33;130028;1270;108471;-75
2022/06/27 00:31:53;;;;;;;6.90;5.60;;;;;;;18.44;60.03;100385.58;129862;1270;108696;-75
2022/06/27 00:34:59;;;;;;;6.70;6.10;;;;;;;18.41;60.20;100386.85;130012;1270;108670;-74
2022/06/27 00:38:05;;;;;;;6.40;5.80;;;;;;;18.39;60.27;100389.13;129934;1271;108641;-75
2022/06/27 00:41:10;;;;;;;6.80;6.20;;;;;;;18.35;60.35;100387.66;129897;1271;108595;-74
2022/06/27 00:44:36;;;;;;;6.50;5.90;;;;;;;18.33;60.42;100390.90;129940;1270;108821;-72
2022/06/27 00:47:42;;;;;;;6.60;5.80;;;;;;;18.30;60.62;100391.61;129961;1270;108997;-71
2022/06/27 00:50:48;;;;;;;6.30;5.70;;;;;;;18.24;60.71;100390.19;129972;1270;108760;-72
2022/06/27 00:53:54;;;;;;;6.20;5.20;;;;;;;18.19;60.82;100393.86;129985;1270;108701;-72
2022/06/27 00:56:59;;;;;;;6.90;5.50;;;;;;;18.15;60.97;100391.75;130057;1270;109041;-74
2022/06/27 01:00:08;;;;;;;6.50;5.70;;;;;;;18.18;61.17;100391.73;130029;1271;107676;-74
2022/06/27 01:03:14;;;;;;;6.60;6.00;;;;;;;18.20;61.15;100389.91;130158;1270;108229;-72
2022/06/27 01:06:19;;;;;;;6.80;6.10;;;;;;;18.25;61.15;100391.80;130011;1270;107683;-72
2022/06/27 01:09:26;;;;;;;6.90;5.80;;;;;;;18.25;61.19;100391.77;129973;1270;108793;-73
2022/06/27 01:12:32;;;;;;;6.60;6.00;;;;;;;18.24;61.18;100392.23;130035;1271;108781;-73
2022/06/27 01:15:38;;;;;;;6.80;6.10;;;;;;;18.21;61.33;100390.58;129978;1270;108823;-73
2022/06/27 01:18:45;;;;;;;6.60;5.90;;;;;;;18.18;61.54;100388.66;129963;1271;107193;-72
2022/06/27 01:21:53;;;;;;;6.70;6.00;;;;;;;18.15;61.60;100389.95;130047;1271;107867;-75
2022/06/27 01:24:59;;;;;;;11.40;5.70;;;;;;;18.12;61.71;100391.36;130078;1271;108890;-73
2022/06/27 01:28:05;;;;;;;5.90;5.30;;;;;;;18.04;61.72;100389.54;129968;1271;108768;-74
2022/06/27 01:31:13;;;;;;;6.20;5.50;;;;;;;17.95;61.82;100388.59;129956;1271;109162;-75
2022/06/27 01:34:19;;;;;;;6.80;6.10;;;;;;;17.93;62.07;100388.21;130058;1270;108825;-74
2022/06/27 01:37:25;;;;;;;6.40;5.80;;;;;;;17.95;62.09;100389.14;129932;1271;108965;-71
2022/06/27 01:40:31;;;;;;;6.50;5.80;;;;;;;17.92;62.04;100386.39;129958;1270;108632;-73
2022/06/27 01:43:37;;;;;;;6.90;6.20;;;;;;;17.89;62.22;100384.48;129976;1271;108810;-71
2022/06/27 01:46:45;;;;;;;6.60;6.00;;;;;;;17.89;62.25;100382.83;130054;1271;108558;-73
2022/06/27 01:49:51;;;;;;;6.60;6.00;;;;;;;17.87;62.33;100382.20;130132;1271;108513;-75
2022/06/27 01:53:00;;;;;;;6.80;6.00;;;;;;;17.81;62.49;100382.91;130000;1271;108903;-74
2022/06/27 01:56:07;;;;;;;6.20;5.60;;;;;;;17.81;62.99;100386.16;129980;1270;108693;-74
2022/06/27 01:59:17;;;;;;;6.20;5.60;;;;;;;18.02;63.40;100384.98;129966;1271;108880;-76
2022/06/27 02:02:24;;;;;;;5.80;5.20;;;;;;;18.30;63.23;100384.31;129968;1271;108909;-72
2022/06/27 02:05:30;;;;;;;6.10;5.50;;;;;;;18.53;62.93;100384.19;129960;1270;108774;-72
2022/06/27 02:08:40;;;;;;;6.20;5.60;;;;;;;18.74;62.85;100387.98;129938;1271;108922;-73
2022/06/27 02:11:48;;;;;;;6.00;5.40;;;;;;;18.86;62.53;100389.31;129990;1271;108791;-70
2022/06/27 02:14:55;;;;;;;5.70;5.20;;;;;;;18.96;62.70;100390.06;129832;1270;108876;-71
2022/06/27 02:18:10;;;;;;;7.10;5.30;;;;;;;19.09;62.47;100388.61;129903;1271;108831;-75
2022/06/27 02:21:19;;;;;;;7.40;5.40;;;;;;;19.14;62.45;100388.95;130064;1270;108870;-76
2022/06/27 02:24:25;;;;;;;5.90;5.40;;;;;;;19.20;62.43;100386.50;130014;1271;108727;-74
2022/06/27 02:27:34;;;;;;;5.90;5.40;;;;;;;19.29;62.35;100384.44;129941;1271;108924;-74
2022/06/27 02:30:40;;;;;;;5.70;5.20;;;;;;;19.33;62.38;100380.95;129991;1271;108756;-72
2022/06/27 02:33:48;;;;;;;7.30;5.80;;;;;;;19.34;62.30;100384.73;129956;1271;108816;-71
2022/06/27 02:36:56;;;;;;;6.20;5.60;;;;;;;19.35;62.22;100384.81;130112;1271;108652;-71
2022/06/27 02:40:02;;;;;;;5.60;5.10;;;;;;;19.37;62.27;100386.02;130028;1270;108786;-75
2022/06/27 02:43:10;;;;;;;5.50;5.00;;;;;;;19.45;62.29;100386.73;130011;1271;108866;-76
2022/06/27 02:46:16;;;;;;;7.50;5.20;;;;;;;19.55;62.33;100387.43;130137;1271;108643;-72
2022/06/27 02:49:22;;;;;;;6.00;5.40;;;;;;;19.69;62.37;100392.61;130166;1271;109195;-71
2022/06/27 02:52:31;;;;;;;6.50;5.50;;;;;;;19.82;62.19;100405.05;129950;1270;108949;-71
2022/06/27 02:55:46;;;;;;;5.80;5.30;;;;;;;19.81;61.95;100402.52;130068;1271;108769;-77
2022/06/27 02:58:59;;;;;;;6.20;5.60;;;;;;;19.72;62.00;100406.73;130090;1271;108937;-75
2022/06/27 03:02:08;;;;;;;5.90;5.40;;;;;;;19.75;62.13;100405.16;129988;1271;108495;-74
2022/06/27 03:05:34;;;;;;;6.00;5.30;;;;;;;19.70;62.07;100405.46;130002;1270;109142;-73
2022/06/27 03:08:42;;;;;;;5.80;5.20;;;;;;;19.61;62.04;100408.91;130119;1271;106907;-76
2022/06/27 03:11:49;;;;;;;6.80;5.40;;;;;;;19.54;61.97;100408.30;130033;1271;107920;-74
2022/06/27 03:14:56;;;;;;;6.80;6.10;;;;;;;19.51;62.23;100410.00;130356;1271;108933;-75
2022/06/27 03:18:02;;;;;;;6.00;5.50;;;;;;;19.55;62.22;100408.80;130066;1271;108858;-75
2022/06/27 03:21:07;;;;;;;6.20;5.60;;;;;;;19.69;62.22;100414.43;130169;1271;108694;-74
2022/06/27 03:24:17;;;;;;;6.20;5.00;;;;;;;19.90;62.23;100414.23;129926;1271;108945;-74
2022/06/27 03:27:22;;;;;;;5.60;5.10;;;;;;;20.10;61.96;100410.35;129947;1271;108788;-76
2022/06/27 03:30:32;;;;;;;7.40;5.80;;;;;;;20.31;61.93;100408.83;130115;1271;108989;-76
2022/06/27 03:33:39;;;;;;;5.70;5.10;;;;;;;20.57;61.82;100411.23;130061;1270;108748;-76
2022/06/27 03:36:58;;;;;;;5.40;4.90;;;;;;;20.90;61.70;100413.35;130060;1271;108814;-76
2022/06/27 03:40:06;;;;;;;5.60;5.10;;;;;;;21.20;61.44;100410.28;130061;1270;108763;-75
2022/06/27 03:43:14;;;;;;;5.80;5.30;;;;;;;21.51;61.33;100412.55;130382;1268;108783;-75
2022/06/27 03:46:20;;;;;;;6.00;5.00;;;;;;;21.77;61.15;100412.83;130360;1267;108832;-76
2022/06/27 03:52:57;;;;;;;5.30;4.80;;;;;;;22.23;60.97;100412.09;130359;1268;108693;-73
2022/06/27 03:56:03;;;;;;;5.20;4.70;;;;;;;22.44;60.87;100418.77;130368;1267;108774;-74
2022/06/27 03:59:09;;;;;;;5.00;4.60;;;;;;;22.67;60.65;100418.39;130341;1268;108831;-74
2022/06/27 04:02:16;;;;;;;5.20;4.70;;;;;;;22.88;60.77;100415.14;130430;1267;108640;-75
2022/06/27 04:06:00;;;;;;;6.20;4.80;;;;;;;23.13;60.43;100411.05;130281;1267;108755;-74
2022/06/27 04:09:06;;;;;;;4.70;4.30;;;;;;;23.34;60.28;100408.86;130359;1267;108821;-74
2022/06/27 04:12:12;;;;;;;4.90;4.40;;;;;;;23.61;59.84;100404.85;130392;1267;108868;-73
2022/06/27 04:15:41;;;;;;;5.00;4.60;;;;;;;23.86;59.69;100406.27;130330;1267;109036;-73
2022/06/27 04:19:05;;;;;;;4.80;4.40;;;;;;;24.13;59.41;100408.96;130386;1267;109002;-73
2022/06/27 04:22:29;;;;;;;4.80;4.40;;;;;;;24.35;58.90;100409.76;130350;1267;108873;-73
2022/06/27 04:25:35;;;;;;;6.00;4.40;;;;;;;24.49;58.74;100406.39;130465;1267;108988;-75
2022/06/27 04:28:40;;;;;;;4.70;4.30;;;;;;;24.61;58.76;100407.65;130282;1267;108690;-76
2022/06/27 04:31:47;;;;;;;5.20;4.70;;;;;;;24.74;58.64;100408.48;130388;1267;108855;-75
2022/06/27 04:34:53;;;;;;;6.60;4.70;;;;;;;24.82;58.47;100408.38;130290;1267;108793;-74
2022/06/27 04:38:00;;;;;;;5.60;4.50;;;;;;;24.89;58.32;100410.80;130353;1267;108281;-77
2022/06/27 04:41:09;;;;;;;6.90;4.20;;;;;;;24.95;58.29;100414.02;130519;1267;109124;-76
2022/06/27 04:44:18;;;;;;;5.20;4.10;;;;;;;25.05;58.16;100420.59;130754;1267;108956;-76
2022/06/27 04:47:23;;;;;;;4.70;4.30;;;;;;;25.13;57.97;100425.59;131965;1266;108787;-75
2022/06/27 04:50:49;;;;;;;5.80;4.10;;;;;;;25.20;57.67;100421.63;130145;1268;110253;-76
2022/06/27 04:53:56;;;;;;;4.60;4.20;;;;;;;25.26;57.37;100428.11;130355;1267;108807;-74
2022/06/27 04:57:03;;;;;;;6.30;4.60;;;;;;;25.33;57.29;100429.91;130414;1267;108543;-75
2022/06/27 05:00:12;;;;;;;4.60;4.20;;;;;;;25.38;56.94;100434.27;130431;1267;108729;-77
2022/06/27 05:03:36;;;;;;;5.00;4.20;;;;;;;25.44;56.65;100437.98;130393;1267;108721;-77
2022/06/27 05:06:46;;;;;;;4.70;4.30;;;;;;;25.53;56.57;100439.70;130390;1267;108731;-75
2022/06/27 05:09:52;;;;;;;5.10;4.60;;;;;;;25.60;56.26;100444.13;130419;1267;108854;-77
2022/06/27 05:12:59;;;;;;;5.00;4.50;;;;;;;25.65;55.99;100444.82;130427;1267;108759;-76
2022/06/27 05:16:06;;;;;;;4.90;4.50;;;;;;;25.70;55.60;100443.48;130327;1267;108949;-75
2022/06/27 05:19:12;;;;;;;4.70;4.20;;;;;;;25.71;55.57;100445.08;130301;1267;108801;-74
2022/06/27 05:22:18;;;;;;;5.30;4.80;;;;;;;25.75;55.28;100441.86;130367;1267;108965;-76
2022/06/27 05:25:25;;;;;;;5.40;4.30;;;;;;;25.78;55.22;100440.22;130198;1267;108862;-77
2022/06/27 05:28:31;;;;;;;4.90;4.50;;;;;;;25.83;55.14;100441.44;130264;1268;107799;-78
2022/06/27 05:31:36;;;;;;;5.40;4.50;;;;;;;25.87;54.91;100439.64;130175;1268;108769;-75
2022/06/27 05:34:41;;;;;;;4.90;4.40;;;;;;;25.93;54.97;100444.23;130182;1268;108931;-77
2022/06/27 05:37:47;;;;;;;5.10;4.50;;;;;;;26.00;54.52;100443.36;130036;1270;107719;-77
2022/06/27 05:40:52;;;;;;;4.90;4.40;;;;;;;26.05;54.65;100447.77;130212;1268;108752;-76
2022/06/27 05:43:59;;;;;;;5.00;4.30;;;;;;;26.08;54.46;100444.86;130222;1270;108828;-76
2022/06/27 05:47:05;;;;;;;4.40;4.00;;;;;;;26.09;54.11;100450.93;130200;1268;108959;-75
2022/06/27 05:50:24;;;;;;;5.40;4.00;;;;;;;26.11;53.94;100449.42;130231;1268;108651;-77
2022/06/27 05:53:30;;;;;;;7.10;4.40;;;;;;;26.13;53.79;100452.75;130180;1270;109065;-77
2022/06/27 05:56:35;;;;;;;4.90;4.30;;;;;;;26.18;53.93;100452.92;130202;1268;107678;-75
2022/06/27 05:59:42;;;;;;;5.10;4.30;;;;;;;26.21;53.83;100457.17;130222;1268;108874;-76
2022/06/27 06:02:47;;;;;;;4.90;4.50;;;;;;;26.22;53.54;100452.70;130154;1270;109137;-74
2022/06/27 06:05:56;;;;;;;4.70;4.20;;;;;;;26.24;53.41;100452.79;130210;1268;108891;-74
2022/06/27 06:09:01;;;;;;;5.30;4.20;;;;;;;26.28;53.43;100454.42;130171;1268;108829;-74
2022/06/27 06:12:09;;;;;;;4.80;4.30;;;;;;;26.32;53.42;100456.39;130198;1268;109178;-75
2022/06/27 06:15:15;;;;;;;4.60;4.20;;;;;;;26.37;53.46;100454.27;130199;1268;108671;-74
2022/06/27 06:18:21;;;;;;;4.30;3.90;;;;;;;26.42;53.17;100454.55;130086;1270;108701;-74
2022/06/27 06:21:28;;;;;;;6.10;4.40;;;;;;;26.47;53.20;100457.30;130087;1268;108836;-74
2022/06/27 06:24:34;;;;;;;5.10;4.30;;;;;;;26.50;53.13;100460.30;130275;1267;108674;-74
2022/06/27 06:27:40;;;;;;;4.20;3.70;;;;;;;26.52;53.36;100461.96;130346;1267;108941;-74
2022/06/27 06:30:47;;;;;;;4.50;3.90;;;;;;;26.52;52.89;100466.96;130359;1267;107863;-74
2022/06/27 06:33:53;;;;;;;5.40;3.90;;;;;;;26.53;52.64;100468.38;130358;1267;108843;-75
2022/06/27 06:36:58;;;;;;;6.40;3.80;;;;;;;26.53;52.65;100472.33;130330;1267;108745;-76
2022/06/27 06:40:04;;;;;;;4.20;3.80;;;;;;;26.53;52.56;100470.73;130329;1267;108656;-77
2022/06/27 06:43:10;;;;;;;4.60;3.60;;;;;;;26.53;52.54;100473.30;130399;1266;108855;-78
2022/06/27 06:46:21;;;;;;;5.60;3.30;;;;;;;26.55;52.48;100470.92;130350;1267;108887;-79
2022/06/27 06:49:39;;;;;;;5.00;3.70;;;;;;;26.55;51.85;100470.75;130360;1267;108845;-77
2022/06/27 06:52:46;;;;;;;4.10;3.50;;;;;;;26.54;51.77;100469.71;130651;1267;109095;-77
2022/06/27 06:55:52;;;;;;;4.20;3.30;;;;;;;26.57;51.56;100469.69;130530;1267;108575;-76
2022/06/27 06:58:58;;;;;;;4.00;3.40;;;;;;;26.59;51.63;100468.80;130524;1267;107584;-77
2022/06/27 07:02:04;;;;;;;4.20;3.80;;;;;;;26.64;51.31;100472.48;130375;1267;108818;-77
2022/06/27 07:05:11;;;;;;;3.60;3.30;;;;;;;26.68;50.93;100466.95;131850;1267;107287;-79
2022/06/27 07:08:17;;;;;;;3.60;3.20;;;;;;;26.74;51.00;100463.47;131014;1267;108738;-78
2022/06/27 07:11:23;;;;;;;4.90;3.30;;;;;;;26.79;50.81;100463.09;130373;1267;108932;-78
2022/06/27 07:14:28;;;;;;;4.00;2.90;;;;;;;26.85;50.90;100461.69;130475;1267;109552;-73
2022/06/27 07:17:41;;;;;;;4.20;3.20;;;;;;;26.89;50.87;100463.20;130390;1267;108799;-71
2022/06/27 07:20:47;;;;;;;4.60;3.50;;;;;;;26.95;50.73;100457.80;130376;1267;108869;-71
2022/06/27 07:23:53;;;;;;;4.10;3.20;;;;;;;27.03;50.79;100461.45;130415;1267;108735;-73
2022/06/27 07:26:59;;;;;;;3.70;3.40;;;;;;;27.08;50.56;100457.77;130367;1267;108393;-71
2022/06/27 07:30:07;;;;;;;4.10;3.10;;;;;;;27.15;50.32;100454.83;130390;1267;108563;-72
2022/06/27 07:33:13;;;;;;;6.30;3.70;;;;;;;27.18;49.84;100457.61;130372;1266;107637;-76
2022/06/27 07:36:19;;;;;;;6.90;3.30;;;;;;;27.23;49.66;100458.85;130439;1267;108594;-75
2022/06/27 07:39:26;;;;;;;3.60;3.30;;;;;;;27.28;49.27;100458.48;130414;1267;108028;-73
2022/06/27 07:42:31;;;;;;;4.00;3.10;;;;;;;27.32;49.21;100455.79;130455;1267;109291;-78
2022/06/27 07:45:39;;;;;;;5.30;3.40;;;;;;;27.37;49.03;100451.57;130503;1266;108788;-75
2022/06/27 07:48:45;;;;;;;4.80;3.20;;;;;;;27.45;48.94;100452.45;130458;1266;107034;-76
2022/06/27 07:51:51;;;;;;;5.10;3.00;;;;;;;27.52;48.96;100452.13;130504;1267;107724;-76
2022/06/27 07:54:57;;;;;;;4.30;2.80;;;;;;;27.61;48.76;100452.86;130456;1265;108629;-74
2022/06/27 07:58:05;;;;;;;5.50;3.20;;;;;;;27.65;48.28;100451.36;130498;1267;108612;-76
2022/06/27 08:01:14;;;;;;;3.50;3.10;;;;;;;27.72;48.31;100452.45;130479;1267;108265;-73
2022/06/27 08:04:23;;;;;;;4.60;3.10;;;;;;;27.79;48.04;100454.93;130516;1267;107294;-74
2022/06/27 08:07:28;;;;;;;3.20;2.90;;;;;;;27.81;47.93;100444.63;130408;1266;108847;-72
2022/06/27 08:10:34;;;;;;;5.60;3.20;;;;;;;27.85;48.00;100440.88;130376;1267;108911;-72
2022/06/27 08:13:40;;;;;;;4.50;3.00;;;;;;;27.88;47.36;100440.36;130413;1266;108498;-73
2022/06/27 08:16:49;;;;;;;4.90;3.00;;;;;;;27.90;47.30;100437.20;130433;1267;108972;-72
2022/06/27 08:19:54;;;;;;;4.90;3.10;;;;;;;27.95;47.76;100434.33;130436;1267;108892;-74
2022/06/27 08:23:00;;;;;;;4.50;2.90;;;;;;;28.03;47.46;100434.71;130315;1267;108818;-75
2022/06/27 08:26:07;;;;;;;4.20;3.00;;;;;;;28.11;47.12;100432.80;130401;1267;108427;-74
2022/06/27 08:29:13;;;;;;;5.20;2.80;;;;;;;28.17;46.72;100430.14;130404;1266;108749;-74
2022/06/27 08:32:18;;;;;;;5.70;3.00;;;;;;;28.24;46.97;100423.20;130381;1267;108874;-73
2022/06/27 08:35:23;;;;;;;6.10;3.40;;;;;;;28.32;46.70;100418.58;130394;1267;108682;-74
2022/06/27 08:38:29;;;;;;;4.60;3.30;;;;;;;28.36;46.41;100425.63;130405;1266;108758;-73
2022/06/27 08:41:35;;;;;;;4.90;3.20;;;;;;;28.37;46.55;100424.52;130376;1267;108535;-74
2022/06/27 08:44:41;;;;;;;4.70;3.00;;;;;;;28.44;46.58;100422.36;130372;1267;108818;-74
2022/06/27 08:47:47;;;;;;;3.80;3.00;;;;;;;28.50;46.05;100416.13;130370;1267;108456;-73
2022/06/27 08:50:55;;;;;;;6.00;2.80;;;;;;;28.54;45.75;100412.00;130386;1267;107342;-73
2022/06/27 08:54:01;;;;;;;5.40;3.00;;;;;;;28.58;45.10;100417.62;130379;1267;107734;-75
2022/06/27 08:57:08;;;;;;;4.60;2.80;;;;;;;28.57;45.06;100419.80;130410;1267;108743;-74
2022/06/27 09:00:17;;;;;;;2.80;2.30;;;;;;;28.62;44.67;100414.71;130383;1266;108659;-74
2022/06/27 09:03:24;;;;;;;3.60;2.50;;;;;;;28.65;44.14;100410.89;130383;1267;108735;-73
2022/06/27 09:06:33;;;;;;;3.50;2.40;;;;;;;28.66;44.13;100411.92;130421;1266;109146;-73
2022/06/27 09:09:38;;;;;;;4.30;2.60;;;;;;;28.70;43.67;100411.55;130373;1266;108701;-73
2022/06/27 09:12:56;;;;;;;5.40;2.60;;;;;;;28.76;43.82;100406.41;130335;1267;108554;-73
2022/06/27 09:16:03;;;;;;;3.90;2.40;;;;;;;28.83;43.49;100406.09;130439;1267;108744;-74
2022/06/27 09:19:08;;;;;;;3.40;2.10;;;;;;;28.89;43.30;100402.87;130458;1267;109285;-73
2022/06/27 09:22:16;;;;;;;3.20;2.20;;;;;;;28.98;43.17;100404.75;130491;1267;108961;-75
2022/06/27 09:25:22;;;;;;;4.80;2.40;;;;;;;29.06;42.88;100403.02;130500;1267;108952;-75
2022/06/27 09:28:39;;;;;;;2.40;2.10;;;;;;;29.13;42.89;100401.28;130459;1268;109803;-75
2022/06/27 09:31:46;;;;;;;2.40;2.20;;;;;;;29.21;42.79;100401.23;130340;1267;108833;-75
2022/06/27 09:34:52;;;;;;;2.80;2.30;;;;;;;29.25;41.99;100399.80;130284;1264;108871;-75
2022/06/27 09:37:59;;;;;;;2.90;2.30;;;;;;;29.21;41.95;100395.46;130396;1267;108124;-74
2022/06/27 09:41:06;;;;;;;2.70;2.20;;;;;;;29.24;41.73;100391.61;130510;1267;108952;-74
2022/06/27 09:44:14;;;;;;;3.70;2.50;;;;;;;29.29;41.71;100393.66;130244;1266;108797;-73
2022/06/27 09:47:21;;;;;;;4.50;2.50;;;;;;;29.36;41.68;100391.23;130450;1266;108749;-74
2022/06/27 09:50:29;;;;;;;2.90;2.30;;;;;;;29.44;41.79;100391.29;130403;1267;109125;-74
2022/06/27 09:53:35;;;;;;;4.10;2.30;;;;;;;29.51;41.26;100382.71;130461;1267;109482;-76
2022/06/27 09:56:45;;;;;;;4.10;2.50;;;;;;;29.51;41.26;100383.04;130371;1267;108777;-74
2022/06/27 09:59:53;;;;;;;3.00;2.40;;;;;;;29.50;40.79;100388.15;130354;1267;107272;-73
2022/06/27 10:02:59;;;;;;;2.70;2.20;;;;;;;29.49;40.52;100390.08;130523;1268;108160;-74
2022/06/27 10:06:06;;;;;;;3.90;2.60;;;;;;;29.50;41.34;100388.48;130324;1267;108877;-74
2022/06/27 10:09:15;;;;;;;3.90;2.40;;;;;;;29.51;40.91;100383.75;130299;1267;108284;-74
2022/06/27 10:12:25;;;;;;;4.70;2.50;;;;;;;29.45;40.99;100385.08;130405;1267;108820;-73
2022/06/27 10:15:31;;;;;;;4.00;2.60;;;;;;;29.38;40.49;100383.54;130342;1267;108743;-74
2022/06/27 10:18:53;;;;;;;3.00;2.40;;;;;;;29.24;40.81;100376.23;130373;1267;108739;-74
2022/06/27 10:21:59;;;;;;;2.80;2.60;;;;;;;29.14;41.24;100375.36;130394;1266;108888;-74
2022/06/27 10:25:37;;;;;;;2.90;2.20;;;;;;;29.16;41.16;100376.12;130377;1268;108626;-74
2022/06/27 10:28:42;;;;;;;3.90;2.60;;;;;;;29.26;41.15;100367.39;130348;1267;108714;-75
2022/06/27 10:31:47;;;;;;;4.20;2.50;;;;;;;29.37;40.88;100357.38;130394;1268;108129;-74
2022/06/27 10:35:14;;;;;;;2.90;2.60;;;;;;;29.46;41.21;100360.48;130359;1267;108661;-73
2022/06/27 10:38:27;;;;;;;4.90;2.50;;;;;;;29.57;41.20;100357.52;130366;1267;108970;-74
2022/06/27 10:41:42;;;;;;;3.00;2.50;;;;;;;29.60;40.77;100363.19;130370;1267;108642;-74
2022/06/27 10:44:48;;;;;;;4.70;2.70;;;;;;;29.54;40.75;100356.15;130393;1267;108633;-73
2022/06/27 10:47:54;;;;;;;2.90;2.60;;;;;;;29.50;40.70;100354.23;130393;1267;108854;-73
2022/06/27 10:51:22;;;;;;;2.70;2.40;;;;;;;29.41;40.61;100355.94;130472;1268;108906;-74
2022/06/27 10:54:39;;;;;;;3.40;2.50;;;;;;;29.38;40.85;100358.10;130421;1267;108938;-76
2022/06/27 10:57:45;;;;;;;4.90;2.60;;;;;;;29.39;40.75;100359.79;130476;1266;108804;-75
2022/06/27 11:00:51;;;;;;;4.60;2.60;;;;;;;29.38;40.74;100360.84;130243;1267;108868;-73
2022/06/27 11:03:57;;;;;;;3.80;2.60;;;;;;;29.34;40.77;100358.48;130511;1268;108674;-74
2022/06/27 11:07:04;;;;;;;3.40;2.50;;;;;;;29.32;40.64;100354.89;130477;1267;108842;-75
2022/06/27 11:10:11;;;;;;;4.90;2.80;;;;;;;29.36;40.77;100356.11;130224;1267;108737;-75
2022/06/27 11:13:36;;;;;;;5.70;2.50;;;;;;;29.43;41.05;100350.16;130492;1267;108824;-75
2022/06/27 11:16:41;;;;;;;3.30;3.00;;;;;;;29.52;40.99;100349.49;130225;1268;108676;-74
2022/06/27 11:23:11;;;;;;;2.80;2.60;;;;;;;29.76;41.13;100340.02;130203;1268;108973;-74
2022/06/27 11:26:17;;;;;;;4.90;2.70;;;;;;;29.86;40.98;100341.25;130188;1268;108623;-76
2022/06/27 11:32:48;;;;;;;2.80;2.60;;;;;;;29.98;40.97;100336.26;130218;1268;109000;-76
2022/06/27 11:35:54;;;;;;;3.70;2.30;;;;;;;30.04;40.74;100333.04;130139;1268;108611;-75
2022/06/27 11:38:59;;;;;;;3.50;2.50;;;;;;;30.06;40.58;100328.42;130223;1268;108642;-75
2022/06/27 11:42:09;;;;;;;3.30;2.30;;;;;;;30.08;40.51;100325.88;130227;1268;108707;-75
2022/06/27 11:45:16;;;;;;;2.70;2.40;;;;;;;30.11;40.70;100334.62;130264;1268;109019;-75
2022/06/27 11:48:21;;;;;;;5.60;2.40;;;;;;;30.14;40.11;100333.72;130204;1268;107632;-75
2022/06/27 11:51:32;;;;;;;3.80;2.30;;;;;;;30.20;40.28;100332.77;130289;1268;108079;-75
2022/06/27 11:54:43;;;;;;;3.60;2.40;;;;;;;30.24;39.79;100336.54;130342;1268;108698;-75
2022/06/27 11:57:51;;;;;;;3.10;2.50;;;;;;;30.28;39.75;100335.48;130264;1268;108967;-75
2022/06/27 12:01:10;;;;;;;3.60;2.50;;;;;;;30.34;39.58;100335.02;130183;1268;108788;-75
2022/06/27 12:04:17;;;;;;;3.00;2.20;;;;;;;30.31;39.12;100333.88;130242;1268;108838;-75
2022/06/27 12:07:23;;;;;;;4.80;2.30;;;;;;;30.31;38.99;100333.27;130203;1267;108907;-74
2022/06/27 12:10:40;;;;;;;3.20;2.30;;;;;;;30.33;39.12;100328.21;130279;1268;108700;-74
2022/06/27 12:13:45;;;;;;;3.80;2.70;;;;;;;30.38;39.16;100329.45;130274;1268;108713;-74
2022/06/27 12:16:52;;;;;;;3.80;2.50;;;;;;;30.46;39.07;100324.45;130361;1267;108769;-74
2022/06/27 12:20:08;;;;;;;3.10;2.80;;;;;;;30.49;38.74;100319.98;130328;1267;108871;-74
2022/06/27 12:23:14;;;;;;;3.80;2.30;;;;;;;30.53;38.73;100316.38;130200;1268;109859;-74
2022/06/27 12:26:20;;;;;;;3.00;2.50;;;;;;;30.58;38.70;100308.52;130207;1268;107015;-74
2022/06/27 12:29:25;;;;;;;3.60;2.30;;;;;;;30.65;38.65;100307.16;130214;1268;108594;-75
2022/06/27 12:32:30;;;;;;;4.10;2.60;;;;;;;30.75;38.66;100307.23;130191;1268;108810;-75
2022/06/27 12:35:36;;;;;;;5.30;2.50;;;;;;;30.87;38.59;100309.80;130191;1268;108903;-74
2022/06/27 12:38:41;;;;;;;4.40;2.90;;;;;;;30.96;38.26;100302.31;130178;1268;108705;-75
2022/06/27 12:41:46;;;;;;;3.70;2.60;;;;;;;31.07;37.87;100295.11;130232;1268;108719;-75
2022/06/27 12:44:51;;;;;;;2.90;2.60;;;;;;;31.21;37.88;100298.35;130196;1268;108717;-74
2022/06/27 12:47:57;;;;;;;3.40;2.60;;;;;;;31.33;37.76;100300.39;130379;1267;108542;-75
2022/06/27 12:51:02;;;;;;;4.40;2.50;;;;;;;31.34;37.68;100297.73;130236;1268;108676;-74
2022/06/27 12:54:08;;;;;;;5.00;2.60;;;;;;;31.25;37.55;100295.61;130245;1268;108721;-75
2022/06/27 12:57:14;;;;;;;3.40;2.60;;;;;;;31.17;37.81;100295.64;130197;1268;109051;-75
2022/06/27 13:00:20;;;;;;;3.20;2.80;;;;;;;31.12;37.95;100294.19;130192;1268;108879;-75
2022/06/27 13:03:25;;;;;;;4.30;3.10;;;;;;;31.07;38.18;100297.93;130232;1268;108735;-75
2022/06/27 13:06:30;;;;;;;3.70;2.70;;;;;;;30.98;38.09;100302.69;130185;1268;108719;-75
2022/06/27 13:09:36;;;;;;;3.10;2.80;;;;;;;30.90;38.28;100301.64;130284;1268;108951;-74
2022/06/27 13:12:41;;;;;;;3.70;2.80;;;;;;;30.84;38.33;100298.64;130359;1267;108992;-74
2022/06/27 13:15:46;;;;;;;4.20;3.20;;;;;;;30.78;38.33;100295.61;130217;1267;108839;-75
2022/06/27 13:18:52;;;;;;;4.00;3.60;;;;;;;30.68;37.97;100294.17;130216;1268;108849;-75
2022/06/27 13:21:58;;;;;;;14.20;9.50;;;;;;;30.61;38.32;100291.86;130283;1267;108759;-75
2022/06/27 13:25:03;;;;;;;5.40;4.10;;;;;;;30.63;38.33;100289.77;130230;1268;108778;-74
2022/06/27 13:28:09;;;;;;;5.20;3.60;;;;;;;30.64;38.33;100285.34;130428;1267;108823;-77
2022/06/27 13:31:14;;;;;;;4.40;3.50;;;;;;;30.68;38.34;100285.59;130490;1265;108184;-76
2022/06/27 13:34:19;;;;;;;4.50;3.00;;;;;;;30.79;38.34;100286.33;130380;1267;109695;-74
2022/06/27 13:37:24;;;;;;;6.10;2.90;;;;;;;30.89;38.35;100276.90;130471;1267;108643;-74
2022/06/27 13:40:30;;;;;;;4.10;2.90;;;;;;;30.98;38.46;100274.31;130550;1267;108802;-74
2022/06/27 13:43:35;;;;;;;3.30;2.80;;;;;;;31.07;38.18;100273.79;130432;1267;108692;-74
2022/06/27 13:46:40;;;;;;;3.20;2.90;;;;;;;31.15;38.03;100275.64;130433;1267;108610;-74
2022/06/27 13:49:47;;;;;;;3.60;3.00;;;;;;;31.17;37.78;100273.02;130387;1267;108707;-72
2022/06/27 13:52:52;;;;;;;4.30;2.90;;;;;;;31.16;37.21;100275.02;131267;1267;108892;-72
2022/06/27 13:55:57;;;;;;;4.30;2.80;;;;;;;31.14;36.52;100268.11;130463;1267;109033;-73
2022/06/27 13:59:04;;;;;;;7.00;2.80;;;;;;;31.09;36.67;100271.34;130369;1269;109919;-73
2022/06/27 14:02:10;;;;;;;3.40;2.60;;;;;;;31.03;36.62;100272.82;130389;1267;107279;-73
2022/06/27 14:05:17;;;;;;;3.30;2.60;;;;;;;30.95;36.74;100268.71;130429;1267;109112;-72
2022/06/27 14:08:22;;;;;;;4.30;2.70;;;;;;;30.88;36.99;100268.32;130317;1267;109089;-75
2022/06/27 14:11:27;;;;;;;4.70;2.60;;;;;;;30.75;36.71;100266.48;130360;1267;108845;-72
2022/06/27 14:14:33;;;;;;;7.60;3.10;;;;;;;30.64;36.66;100264.80;130351;1267;108646;-73
2022/06/27 14:17:38;;;;;;;3.30;2.80;;;;;;;30.55;36.53;100256.16;130381;1267;108746;-73
2022/06/27 14:20:44;;;;;;;4.00;2.60;;;;;;;30.48;36.22;100254.34;130376;1266;108699;-73
2022/06/27 14:23:49;;;;;;;2.60;2.40;;;;;;;30.47;36.40;100256.55;130384;1267;107156;-73